sensor_id;sensor_type;location;lat;lon;timestamp;temperature;humidity
47168;DHT22;32931;47.778;17.806;2023-04-03T00:00:31;5.40;99.90
47168;DHT22;32931;47.778;17.806;2023-04-03T00:02:58;5.40;99.90
47168;DHT22;32931;47.778;17.806;2023-04-03T00:05:24;5.40;99.90
47168;DHT22;32931;47.778;17.806;2023-04-03T00:07:51;5.40;99.90
47168;DHT22;32931;47.778;17.806;2023-04-03T00:10:17;5.40;99.90
47168;DHT22;32931;47.778;17.806;2023-04-03T00:12:43;5.30;99.90
47168;DHT22;32931;47.778;17.806;2023-04-03T00:15:09;5.30;99.90
47168;DHT22;32931;47.778;17.806;2023-04-03T00:17:36;5.30;99.90
47168;DHT22;32931;47.778;17.806;2023-04-03T00:20:03;5.30;99.90
47168;DHT22;32931;47.778;17.806;2023-04-03T00:22:29;5.30;99.90
47168;DHT22;32931;47.778;17.806;2023-04-03T00:24:56;5.30;99.90
47168;DHT22;32931;47.778;17.806;2023-04-03T00:27:22;5.30;99.90
47168;DHT22;32931;47.778;17.806;2023-04-03T00:29:48;5.30;99.90
47168;DHT22;32931;47.778;17.806;2023-04-03T00:32:14;5.20;99.90
47168;DHT22;32931;47.778;17.806;2023-04-03T00:34:41;5.20;99.90
47168;DHT22;32931;47.778;17.806;2023-04-03T00:37:07;5.20;99.90
47168;DHT22;32931;47.778;17.806;2023-04-03T00:39:33;5.20;99.90
47168;DHT22;32931;47.778;17.806;2023-04-03T00:41:59;5.20;99.90
47168;DHT22;32931;47.778;17.806;2023-04-03T00:46:54;5.20;99.90
47168;DHT22;32931;47.778;17.806;2023-04-03T00:49:21;5.20;99.90
47168;DHT22;32931;47.778;17.806;2023-04-03T00:51:47;5.20;99.90
47168;DHT22;32931;47.778;17.806;2023-04-03T00:54:13;5.20;99.90
47168;DHT22;32931;47.778;17.806;2023-04-03T00:56:40;5.20;99.90
47168;DHT22;32931;47.778;17.806;2023-04-03T00:59:10;5.20;99.90
47168;DHT22;32931;47.778;17.806;2023-04-03T01:01:38;5.10;99.90
47168;DHT22;32931;47.778;17.806;2023-04-03T01:04:04;5.10;99.90
47168;DHT22;32931;47.778;17.806;2023-04-03T01:06:36;5.10;99.90
47168;DHT22;32931;47.778;17.806;2023-04-03T01:09:03;5.10;99.90
47168;DHT22;32931;47.778;17.806;2023-04-03T01:11:30;5.10;99.90
47168;DHT22;32931;47.778;17.806;2023-04-03T01:13:56;5.10;99.90
47168;DHT22;32931;47.778;17.806;2023-04-03T01:16:22;5.10;99.90
47168;DHT22;32931;47.778;17.806;2023-04-03T01:18:48;5.10;99.90
47168;DHT22;32931;47.778;17.806;2023-04-03T01:21:23;5.10;99.90
47168;DHT22;32931;47.778;17.806;2023-04-03T01:24:17;5.00;99.90
47168;DHT22;32931;47.778;17.806;2023-04-03T01:26:48;5.00;99.90
47168;DHT22;32931;47.778;17.806;2023-04-03T01:29:14;5.10;99.90
47168;DHT22;32931;47.778;17.806;2023-04-03T01:31:54;5.10;99.90
47168;DHT22;32931;47.778;17.806;2023-04-03T01:34:22;5.10;99.90
47168;DHT22;32931;47.778;17.806;2023-04-03T01:36:48;5.10;99.90
47168;DHT22;32931;47.778;17.806;2023-04-03T01:39:14;5.00;99.90
47168;DHT22;32931;47.778;17.806;2023-04-03T01:41:41;5.00;99.90
47168;DHT22;32931;47.778;17.806;2023-04-03T01:44:07;4.90;99.90
47168;DHT22;32931;47.778;17.806;2023-04-03T01:46:33;4.90;99.90
47168;DHT22;32931;47.778;17.806;2023-04-03T01:48:59;5.00;99.90
47168;DHT22;32931;47.778;17.806;2023-04-03T01:51:25;4.90;99.90
47168;DHT22;32931;47.778;17.806;2023-04-03T01:53:51;4.90;99.90
47168;DHT22;32931;47.778;17.806;2023-04-03T01:56:18;4.90;99.90
47168;DHT22;32931;47.778;17.806;2023-04-03T01:58:44;4.80;99.90
47168;DHT22;32931;47.778;17.806;2023-04-03T02:01:10;4.90;99.90
47168;DHT22;32931;47.778;17.806;2023-04-03T02:03:36;4.80;99.90
47168;DHT22;32931;47.778;17.806;2023-04-03T02:06:02;4.80;99.90
47168;DHT22;32931;47.778;17.806;2023-04-03T02:08:29;4.80;99.90
47168;DHT22;32931;47.778;17.806;2023-04-03T02:10:55;4.70;99.90
47168;DHT22;32931;47.778;17.806;2023-04-03T02:13:21;4.80;99.90
47168;DHT22;32931;47.778;17.806;2023-04-03T02:15:47;4.70;99.90
47168;DHT22;32931;47.778;17.806;2023-04-03T02:18:14;4.80;99.90
47168;DHT22;32931;47.778;17.806;2023-04-03T02:20:40;4.70;99.90
47168;DHT22;32931;47.778;17.806;2023-04-03T02:23:06;4.70;99.90
47168;DHT22;32931;47.778;17.806;2023-04-03T02:25:33;4.80;99.90
47168;DHT22;32931;47.778;17.806;2023-04-03T02:27:59;4.70;99.90
47168;DHT22;32931;47.778;17.806;2023-04-03T02:30:26;4.70;99.90
47168;DHT22;32931;47.778;17.806;2023-04-03T02:32:52;4.70;99.90
47168;DHT22;32931;47.778;17.806;2023-04-03T02:35:18;4.70;99.90
47168;DHT22;32931;47.778;17.806;2023-04-03T02:37:44;4.70;99.90
47168;DHT22;32931;47.778;17.806;2023-04-03T02:40:11;4.70;99.90
47168;DHT22;32931;47.778;17.806;2023-04-03T02:42:37;4.70;99.90
47168;DHT22;32931;47.778;17.806;2023-04-03T02:45:04;4.70;99.90
47168;DHT22;32931;47.778;17.806;2023-04-03T02:47:30;4.70;99.90
47168;DHT22;32931;47.778;17.806;2023-04-03T02:49:56;4.70;99.90
47168;DHT22;32931;47.778;17.806;2023-04-03T02:52:22;4.60;99.90
47168;DHT22;32931;47.778;17.806;2023-04-03T02:54:48;4.60;99.90
47168;DHT22;32931;47.778;17.806;2023-04-03T02:57:15;4.70;99.90
47168;DHT22;32931;47.778;17.806;2023-04-03T02:59:41;4.70;99.90
47168;DHT22;32931;47.778;17.806;2023-04-03T03:02:10;4.60;99.90
47168;DHT22;32931;47.778;17.806;2023-04-03T03:04:37;4.60;99.90
47168;DHT22;32931;47.778;17.806;2023-04-03T03:07:03;4.60;99.90
47168;DHT22;32931;47.778;17.806;2023-04-03T03:09:29;4.60;99.90
47168;DHT22;32931;47.778;17.806;2023-04-03T03:11:56;4.60;99.90
47168;DHT22;32931;47.778;17.806;2023-04-03T03:14:23;4.60;99.90
47168;DHT22;32931;47.778;17.806;2023-04-03T03:16:49;4.60;99.90
47168;DHT22;32931;47.778;17.806;2023-04-03T03:19:15;4.50;99.90
47168;DHT22;32931;47.778;17.806;2023-04-03T03:21:41;4.50;99.90
47168;DHT22;32931;47.778;17.806;2023-04-03T03:24:08;4.50;99.90
47168;DHT22;32931;47.778;17.806;2023-04-03T03:26:34;4.50;99.90
47168;DHT22;32931;47.778;17.806;2023-04-03T03:29:00;4.50;99.90
47168;DHT22;32931;47.778;17.806;2023-04-03T03:31:26;4.40;99.90
47168;DHT22;32931;47.778;17.806;2023-04-03T03:33:53;4.40;99.90
47168;DHT22;32931;47.778;17.806;2023-04-03T03:36:19;4.40;99.90
47168;DHT22;32931;47.778;17.806;2023-04-03T03:38:45;4.40;99.90
47168;DHT22;32931;47.778;17.806;2023-04-03T03:41:11;4.40;99.90
47168;DHT22;32931;47.778;17.806;2023-04-03T03:43:37;4.40;99.90
47168;DHT22;32931;47.778;17.806;2023-04-03T03:46:03;4.40;99.90
47168;DHT22;32931;47.778;17.806;2023-04-03T03:48:29;4.40;99.90
47168;DHT22;32931;47.778;17.806;2023-04-03T03:50:56;4.40;99.90
47168;DHT22;32931;47.778;17.806;2023-04-03T03:53:22;4.40;99.90
47168;DHT22;32931;47.778;17.806;2023-04-03T03:55:48;4.40;99.90
47168;DHT22;32931;47.778;17.806;2023-04-03T03:58:14;4.40;99.90
47168;DHT22;32931;47.778;17.806;2023-04-03T04:00:40;4.40;99.90
47168;DHT22;32931;47.778;17.806;2023-04-03T04:03:07;4.40;99.90
47168;DHT22;32931;47.778;17.806;2023-04-03T04:05:33;4.40;99.90
47168;DHT22;32931;47.778;17.806;2023-04-03T04:07:59;4.40;99.90
47168;DHT22;32931;47.778;17.806;2023-04-03T04:10:25;4.40;99.90
47168;DHT22;32931;47.778;17.806;2023-04-03T04:12:51;4.40;99.90
47168;DHT22;32931;47.778;17.806;2023-04-03T04:15:18;4.40;99.90
47168;DHT22;32931;47.778;17.806;2023-04-03T04:17:44;4.40;99.90
47168;DHT22;32931;47.778;17.806;2023-04-03T04:20:11;4.40;99.90
47168;DHT22;32931;47.778;17.806;2023-04-03T04:22:37;4.30;99.90
47168;DHT22;32931;47.778;17.806;2023-04-03T04:25:04;4.30;99.90
47168;DHT22;32931;47.778;17.806;2023-04-03T04:27:31;4.30;99.90
47168;DHT22;32931;47.778;17.806;2023-04-03T04:29:57;4.30;99.90
47168;DHT22;32931;47.778;17.806;2023-04-03T04:32:23;4.30;99.90
47168;DHT22;32931;47.778;17.806;2023-04-03T04:34:49;4.30;99.90
47168;DHT22;32931;47.778;17.806;2023-04-03T04:37:15;4.30;99.90
47168;DHT22;32931;47.778;17.806;2023-04-03T04:39:41;4.30;99.90
47168;DHT22;32931;47.778;17.806;2023-04-03T04:42:08;4.40;99.90
47168;DHT22;32931;47.778;17.806;2023-04-03T04:44:39;4.40;99.90
47168;DHT22;32931;47.778;17.806;2023-04-03T04:47:06;4.40;99.90
47168;DHT22;32931;47.778;17.806;2023-04-03T04:49:32;4.40;99.90
47168;DHT22;32931;47.778;17.806;2023-04-03T04:51:58;4.40;99.90
47168;DHT22;32931;47.778;17.806;2023-04-03T04:54:24;4.40;99.90
47168;DHT22;32931;47.778;17.806;2023-04-03T04:56:51;4.40;99.90
47168;DHT22;32931;47.778;17.806;2023-04-03T04:59:17;4.50;99.90
47168;DHT22;32931;47.778;17.806;2023-04-03T05:01:43;4.50;99.90
47168;DHT22;32931;47.778;17.806;2023-04-03T05:04:10;4.50;99.90
47168;DHT22;32931;47.778;17.806;2023-04-03T05:06:38;4.50;99.90
47168;DHT22;32931;47.778;17.806;2023-04-03T05:09:04;4.60;99.90
47168;DHT22;32931;47.778;17.806;2023-04-03T05:11:31;4.60;99.90
47168;DHT22;32931;47.778;17.806;2023-04-03T05:13:57;4.60;99.90
47168;DHT22;32931;47.778;17.806;2023-04-03T05:16:23;4.70;99.90
47168;DHT22;32931;47.778;17.806;2023-04-03T05:18:49;4.70;99.90
47168;DHT22;32931;47.778;17.806;2023-04-03T05:21:15;4.80;99.90
47168;DHT22;32931;47.778;17.806;2023-04-03T05:23:44;4.80;99.90
47168;DHT22;32931;47.778;17.806;2023-04-03T05:26:10;4.80;99.90
47168;DHT22;32931;47.778;17.806;2023-04-03T05:28:36;4.80;99.90
47168;DHT22;32931;47.778;17.806;2023-04-03T05:31:02;4.90;99.90
47168;DHT22;32931;47.778;17.806;2023-04-03T05:33:29;4.90;99.90
47168;DHT22;32931;47.778;17.806;2023-04-03T05:35:55;4.90;99.90
47168;DHT22;32931;47.778;17.806;2023-04-03T05:38:21;5.00;99.90
47168;DHT22;32931;47.778;17.806;2023-04-03T05:40:47;5.00;99.90
47168;DHT22;32931;47.778;17.806;2023-04-03T05:43:13;5.10;99.90
47168;DHT22;32931;47.778;17.806;2023-04-03T05:45:39;5.20;99.90
47168;DHT22;32931;47.778;17.806;2023-04-03T05:48:06;5.30;99.90
47168;DHT22;32931;47.778;17.806;2023-04-03T05:50:32;5.30;99.90
47168;DHT22;32931;47.778;17.806;2023-04-03T05:52:59;5.40;99.90
47168;DHT22;32931;47.778;17.806;2023-04-03T05:55:26;5.40;99.90
47168;DHT22;32931;47.778;17.806;2023-04-03T05:57:52;5.50;99.90
47168;DHT22;32931;47.778;17.806;2023-04-03T06:00:18;5.50;99.90
47168;DHT22;32931;47.778;17.806;2023-04-03T06:02:45;5.60;99.90
47168;DHT22;32931;47.778;17.806;2023-04-03T06:05:11;5.60;99.90
47168;DHT22;32931;47.778;17.806;2023-04-03T06:07:38;5.60;99.90
47168;DHT22;32931;47.778;17.806;2023-04-03T06:10:04;5.70;99.90
47168;DHT22;32931;47.778;17.806;2023-04-03T06:12:31;5.70;99.90
47168;DHT22;32931;47.778;17.806;2023-04-03T06:14:57;5.80;99.90
47168;DHT22;32931;47.778;17.806;2023-04-03T06:17:23;5.80;99.90
47168;DHT22;32931;47.778;17.806;2023-04-03T06:19:50;5.90;99.90
47168;DHT22;32931;47.778;17.806;2023-04-03T06:22:16;6.00;99.90
47168;DHT22;32931;47.778;17.806;2023-04-03T06:24:42;6.00;99.90
47168;DHT22;32931;47.778;17.806;2023-04-03T06:27:10;6.10;99.90
47168;DHT22;32931;47.778;17.806;2023-04-03T06:29:37;6.10;99.90
47168;DHT22;32931;47.778;17.806;2023-04-03T06:32:03;6.10;99.90
47168;DHT22;32931;47.778;17.806;2023-04-03T06:34:29;6.20;99.90
47168;DHT22;32931;47.778;17.806;2023-04-03T06:36:55;6.20;99.90
47168;DHT22;32931;47.778;17.806;2023-04-03T06:39:22;6.20;99.90
47168;DHT22;32931;47.778;17.806;2023-04-03T06:41:49;6.20;99.90
47168;DHT22;32931;47.778;17.806;2023-04-03T06:44:16;6.30;99.90
47168;DHT22;32931;47.778;17.806;2023-04-03T06:46:43;6.40;99.90
47168;DHT22;32931;47.778;17.806;2023-04-03T06:49:11;6.40;99.90
47168;DHT22;32931;47.778;17.806;2023-04-03T06:51:37;6.50;99.90
47168;DHT22;32931;47.778;17.806;2023-04-03T06:54:04;6.50;99.90
47168;DHT22;32931;47.778;17.806;2023-04-03T06:56:32;6.50;99.90
47168;DHT22;32931;47.778;17.806;2023-04-03T06:58:58;6.50;99.90
47168;DHT22;32931;47.778;17.806;2023-04-03T07:01:26;6.60;99.90
47168;DHT22;32931;47.778;17.806;2023-04-03T07:03:53;6.70;99.90
47168;DHT22;32931;47.778;17.806;2023-04-03T07:06:20;6.70;99.90
47168;DHT22;32931;47.778;17.806;2023-04-03T07:08:47;6.80;99.90
47168;DHT22;32931;47.778;17.806;2023-04-03T07:11:15;6.80;99.90
47168;DHT22;32931;47.778;17.806;2023-04-03T07:13:41;6.90;99.90
47168;DHT22;32931;47.778;17.806;2023-04-03T07:16:08;6.90;99.90
47168;DHT22;32931;47.778;17.806;2023-04-03T07:18:34;7.00;99.90
47168;DHT22;32931;47.778;17.806;2023-04-03T07:21:01;7.00;99.90
47168;DHT22;32931;47.778;17.806;2023-04-03T07:23:27;7.00;99.90
47168;DHT22;32931;47.778;17.806;2023-04-03T07:25:54;7.10;99.90
47168;DHT22;32931;47.778;17.806;2023-04-03T07:28:21;7.20;99.90
47168;DHT22;32931;47.778;17.806;2023-04-03T07:30:50;7.20;99.90
47168;DHT22;32931;47.778;17.806;2023-04-03T07:33:19;7.20;99.90
47168;DHT22;32931;47.778;17.806;2023-04-03T07:35:45;7.20;99.90
47168;DHT22;32931;47.778;17.806;2023-04-03T07:38:12;7.30;99.90
47168;DHT22;32931;47.778;17.806;2023-04-03T07:40:39;7.30;99.90
47168;DHT22;32931;47.778;17.806;2023-04-03T07:43:06;7.40;99.90
47168;DHT22;32931;47.778;17.806;2023-04-03T07:45:34;7.40;99.90
47168;DHT22;32931;47.778;17.806;2023-04-03T07:48:01;7.50;99.90
47168;DHT22;32931;47.778;17.806;2023-04-03T07:50:28;7.60;99.90
47168;DHT22;32931;47.778;17.806;2023-04-03T07:52:56;7.70;99.90
47168;DHT22;32931;47.778;17.806;2023-04-03T07:55:24;7.80;99.90
47168;DHT22;32931;47.778;17.806;2023-04-03T07:57:50;7.80;99.90
47168;DHT22;32931;47.778;17.806;2023-04-03T08:00:17;7.80;99.90
47168;DHT22;32931;47.778;17.806;2023-04-03T08:02:44;7.90;99.90
47168;DHT22;32931;47.778;17.806;2023-04-03T08:05:10;8.00;99.90
47168;DHT22;32931;47.778;17.806;2023-04-03T08:07:37;8.00;99.90
47168;DHT22;32931;47.778;17.806;2023-04-03T08:10:04;8.00;99.90
47168;DHT22;32931;47.778;17.806;2023-04-03T08:12:31;8.00;99.90
47168;DHT22;32931;47.778;17.806;2023-04-03T08:14:59;8.10;99.60
47168;DHT22;32931;47.778;17.806;2023-04-03T08:17:26;8.10;99.00
47168;DHT22;32931;47.778;17.806;2023-04-03T08:19:52;8.20;98.90
47168;DHT22;32931;47.778;17.806;2023-04-03T08:22:18;8.20;98.40
47168;DHT22;32931;47.778;17.806;2023-04-03T08:24:44;8.30;98.40
47168;DHT22;32931;47.778;17.806;2023-04-03T08:27:11;8.40;97.90
47168;DHT22;32931;47.778;17.806;2023-04-03T08:29:37;8.50;97.90
47168;DHT22;32931;47.778;17.806;2023-04-03T08:32:04;8.60;97.50
47168;DHT22;32931;47.778;17.806;2023-04-03T08:34:31;8.70;97.10
47168;DHT22;32931;47.778;17.806;2023-04-03T08:37:01;8.70;97.00
47168;DHT22;32931;47.778;17.806;2023-04-03T08:39:27;8.70;96.40
47168;DHT22;32931;47.778;17.806;2023-04-03T08:41:56;8.70;95.90
47168;DHT22;32931;47.778;17.806;2023-04-03T08:44:38;8.70;95.10
47168;DHT22;32931;47.778;17.806;2023-04-03T08:50:27;8.80;95.50
47168;DHT22;32931;47.778;17.806;2023-04-03T08:52:58;8.90;94.30
47168;DHT22;32931;47.778;17.806;2023-04-03T08:55:33;9.00;94.20
47168;DHT22;32931;47.778;17.806;2023-04-03T08:58:02;9.00;94.00
47168;DHT22;32931;47.778;17.806;2023-04-03T09:03:15;8.80;93.40
47168;DHT22;32931;47.778;17.806;2023-04-03T09:08:25;8.60;94.20
47168;DHT22;32931;47.778;17.806;2023-04-03T09:11:06;8.80;94.60
47168;DHT22;32931;47.778;17.806;2023-04-03T09:18:58;9.20;93.90
47168;DHT22;32931;47.778;17.806;2023-04-03T09:21:30;9.30;92.80
47168;DHT22;32931;47.778;17.806;2023-04-03T09:24:01;9.30;92.80
47168;DHT22;32931;47.778;17.806;2023-04-03T09:26:57;9.50;92.70
47168;DHT22;32931;47.778;17.806;2023-04-03T09:29:25;9.50;91.20
47168;DHT22;32931;47.778;17.806;2023-04-03T09:32:01;9.40;92.30
47168;DHT22;32931;47.778;17.806;2023-04-03T09:34:32;9.50;91.80
47168;DHT22;32931;47.778;17.806;2023-04-03T09:37:03;9.60;92.10
47168;DHT22;32931;47.778;17.806;2023-04-03T09:39:47;9.80;91.80
47168;DHT22;32931;47.778;17.806;2023-04-03T09:44:57;10.00;92.10
47168;DHT22;32931;47.778;17.806;2023-04-03T09:47:35;10.10;91.20
47168;DHT22;32931;47.778;17.806;2023-04-03T09:52:41;10.20;87.70
47168;DHT22;32931;47.778;17.806;2023-04-03T09:55:18;10.00;90.70
47168;DHT22;32931;47.778;17.806;2023-04-03T09:57:47;10.00;90.00
47168;DHT22;32931;47.778;17.806;2023-04-03T10:00:26;10.10;90.40
47168;DHT22;32931;47.778;17.806;2023-04-03T10:02:56;10.20;88.90
47168;DHT22;32931;47.778;17.806;2023-04-03T10:05:33;10.20;88.70
47168;DHT22;32931;47.778;17.806;2023-04-03T10:08:20;10.30;87.90
47168;DHT22;32931;47.778;17.806;2023-04-03T10:13:32;10.30;88.40
47168;DHT22;32931;47.778;17.806;2023-04-03T10:16:12;10.30;87.50
47168;DHT22;32931;47.778;17.806;2023-04-03T10:18:59;10.40;87.70
47168;DHT22;32931;47.778;17.806;2023-04-03T10:21:48;10.40;84.70
47168;DHT22;32931;47.778;17.806;2023-04-03T10:29:40;10.30;87.50
47168;DHT22;32931;47.778;17.806;2023-04-03T10:34:41;10.30;86.20
47168;DHT22;32931;47.778;17.806;2023-04-03T10:37:18;10.40;85.70
47168;DHT22;32931;47.778;17.806;2023-04-03T10:40:15;10.20;85.20
47168;DHT22;32931;47.778;17.806;2023-04-03T10:43:14;10.40;83.20
47168;DHT22;32931;47.778;17.806;2023-04-03T10:45:57;10.40;83.90
47168;DHT22;32931;47.778;17.806;2023-04-03T10:54:12;10.60;83.50
47168;DHT22;32931;47.778;17.806;2023-04-03T10:56:47;10.70;83.90
47168;DHT22;32931;47.778;17.806;2023-04-03T11:02:04;11.00;82.30
47168;DHT22;32931;47.778;17.806;2023-04-03T11:04:36;11.10;82.80
47168;DHT22;32931;47.778;17.806;2023-04-03T11:07:10;11.00;81.90
47168;DHT22;32931;47.778;17.806;2023-04-03T11:09:42;10.90;81.70
47168;DHT22;32931;47.778;17.806;2023-04-03T11:12:14;10.90;82.30
47168;DHT22;32931;47.778;17.806;2023-04-03T11:14:43;11.10;83.10
47168;DHT22;32931;47.778;17.806;2023-04-03T11:20:10;11.40;80.70
47168;DHT22;32931;47.778;17.806;2023-04-03T11:22:47;11.40;79.80
47168;DHT22;32931;47.778;17.806;2023-04-03T11:25:19;11.50;81.40
47168;DHT22;32931;47.778;17.806;2023-04-03T11:28:24;11.70;81.20
47168;DHT22;32931;47.778;17.806;2023-04-03T11:30:57;11.90;79.80
47168;DHT22;32931;47.778;17.806;2023-04-03T11:36:12;11.80;77.30
47168;DHT22;32931;47.778;17.806;2023-04-03T11:38:46;11.90;78.10
47168;DHT22;32931;47.778;17.806;2023-04-03T11:41:14;11.90;77.50
47168;DHT22;32931;47.778;17.806;2023-04-03T11:43:55;11.80;77.00
47168;DHT22;32931;47.778;17.806;2023-04-03T11:46:22;11.70;75.30
47168;DHT22;32931;47.778;17.806;2023-04-03T12:16:21;11.30;76.10
47168;DHT22;32931;47.778;17.806;2023-04-03T12:21:23;11.40;72.80
47168;DHT22;32931;47.778;17.806;2023-04-03T12:24:00;11.10;74.30
47168;DHT22;32931;47.778;17.806;2023-04-03T12:29:25;11.10;75.80
47168;DHT22;32931;47.778;17.806;2023-04-03T12:40:27;11.70;75.40
47168;DHT22;32931;47.778;17.806;2023-04-03T12:48:29;11.90;73.80
47168;DHT22;32931;47.778;17.806;2023-04-03T12:50:57;11.90;73.50
47168;DHT22;32931;47.778;17.806;2023-04-03T12:53:42;12.00;73.50
47168;DHT22;32931;47.778;17.806;2023-04-03T12:56:27;12.00;69.50
47168;DHT22;32931;47.778;17.806;2023-04-03T12:58:55;12.10;70.70
47168;DHT22;32931;47.778;17.806;2023-04-03T13:01:25;12.00;71.10
47168;DHT22;32931;47.778;17.806;2023-04-03T13:03:56;12.20;70.90
47168;DHT22;32931;47.778;17.806;2023-04-03T13:06:30;12.20;70.30
47168;DHT22;32931;47.778;17.806;2023-04-03T13:08:59;12.30;68.70
47168;DHT22;32931;47.778;17.806;2023-04-03T13:11:30;12.40;69.20
47168;DHT22;32931;47.778;17.806;2023-04-03T13:14:13;12.60;69.00
47168;DHT22;32931;47.778;17.806;2023-04-03T13:16:40;12.50;67.00
47168;DHT22;32931;47.778;17.806;2023-04-03T13:19:16;12.40;68.90
47168;DHT22;32931;47.778;17.806;2023-04-03T13:21:43;12.70;68.90
47168;DHT22;32931;47.778;17.806;2023-04-03T13:24:10;12.90;67.70
47168;DHT22;32931;47.778;17.806;2023-04-03T13:26:37;13.10;67.80
47168;DHT22;32931;47.778;17.806;2023-04-03T13:29:06;13.20;67.90
47168;DHT22;32931;47.778;17.806;2023-04-03T13:31:36;13.30;67.20
47168;DHT22;32931;47.778;17.806;2023-04-03T13:34:13;13.20;66.00
47168;DHT22;32931;47.778;17.806;2023-04-03T13:36:58;13.10;63.70
47168;DHT22;32931;47.778;17.806;2023-04-03T13:39:28;13.10;62.90
47168;DHT22;32931;47.778;17.806;2023-04-03T13:41:57;13.10;65.10
47168;DHT22;32931;47.778;17.806;2023-04-03T13:44:31;13.20;63.90
47168;DHT22;32931;47.778;17.806;2023-04-03T13:49:40;12.80;64.50
47168;DHT22;32931;47.778;17.806;2023-04-03T13:54:54;13.40;64.00
47168;DHT22;32931;47.778;17.806;2023-04-03T13:57:22;13.50;64.00
47168;DHT22;32931;47.778;17.806;2023-04-03T13:59:48;13.80;64.20
47168;DHT22;32931;47.778;17.806;2023-04-03T14:02:21;13.90;61.20
47168;DHT22;32931;47.778;17.806;2023-04-03T14:04:54;14.20;62.20
47168;DHT22;32931;47.778;17.806;2023-04-03T14:07:24;14.20;59.20
47168;DHT22;32931;47.778;17.806;2023-04-03T14:09:51;14.30;60.20
47168;DHT22;32931;47.778;17.806;2023-04-03T14:12:55;14.30;61.20
47168;DHT22;32931;47.778;17.806;2023-04-03T14:15:23;14.40;60.10
47168;DHT22;32931;47.778;17.806;2023-04-03T14:17:51;14.40;59.80
47168;DHT22;32931;47.778;17.806;2023-04-03T14:20:20;14.50;61.00
47168;DHT22;32931;47.778;17.806;2023-04-03T14:22:48;14.90;57.90
47168;DHT22;32931;47.778;17.806;2023-04-03T14:25:15;15.20;58.90
47168;DHT22;32931;47.778;17.806;2023-04-03T14:27:44;15.50;57.40
47168;DHT22;32931;47.778;17.806;2023-04-03T14:30:21;15.70;57.70
47168;DHT22;32931;47.778;17.806;2023-04-03T14:32:47;16.30;54.90
47168;DHT22;32931;47.778;17.806;2023-04-03T14:35:15;16.60;56.80
47168;DHT22;32931;47.778;17.806;2023-04-03T14:37:42;16.90;55.90
47168;DHT22;32931;47.778;17.806;2023-04-03T14:40:11;16.80;54.50
47168;DHT22;32931;47.778;17.806;2023-04-03T14:42:38;16.70;54.10
47168;DHT22;32931;47.778;17.806;2023-04-03T14:45:07;16.40;54.40
47168;DHT22;32931;47.778;17.806;2023-04-03T14:47:39;16.60;55.30
47168;DHT22;32931;47.778;17.806;2023-04-03T14:50:07;17.00;53.80
47168;DHT22;32931;47.778;17.806;2023-04-03T14:52:37;17.40;52.80
47168;DHT22;32931;47.778;17.806;2023-04-03T14:55:05;17.80;53.20
47168;DHT22;32931;47.778;17.806;2023-04-03T14:57:32;18.00;51.20
47168;DHT22;32931;47.778;17.806;2023-04-03T14:59:59;17.90;51.90
47168;DHT22;32931;47.778;17.806;2023-04-03T15:02:32;18.20;52.10
47168;DHT22;32931;47.778;17.806;2023-04-03T15:04:59;18.70;49.70
47168;DHT22;32931;47.778;17.806;2023-04-03T15:07:28;18.90;49.90
47168;DHT22;32931;47.778;17.806;2023-04-03T15:09:55;19.30;48.80
47168;DHT22;32931;47.778;17.806;2023-04-03T15:12:23;19.50;49.50
47168;DHT22;32931;47.778;17.806;2023-04-03T15:14:50;19.30;48.30
47168;DHT22;32931;47.778;17.806;2023-04-03T15:17:21;19.60;48.50
47168;DHT22;32931;47.778;17.806;2023-04-03T15:19:48;19.60;45.70
47168;DHT22;32931;47.778;17.806;2023-04-03T15:22:19;19.80;49.10
47168;DHT22;32931;47.778;17.806;2023-04-03T15:24:46;19.70;46.40
47168;DHT22;32931;47.778;17.806;2023-04-03T15:27:13;19.90;47.70
47168;DHT22;32931;47.778;17.806;2023-04-03T15:29:41;19.90;46.10
47168;DHT22;32931;47.778;17.806;2023-04-03T15:32:08;19.90;46.70
47168;DHT22;32931;47.778;17.806;2023-04-03T15:34:35;19.80;47.00
47168;DHT22;32931;47.778;17.806;2023-04-03T15:37:01;19.70;46.30
47168;DHT22;32931;47.778;17.806;2023-04-03T15:39:27;19.80;46.10
47168;DHT22;32931;47.778;17.806;2023-04-03T15:41:54;19.70;45.40
47168;DHT22;32931;47.778;17.806;2023-04-03T15:44:21;19.70;45.70
47168;DHT22;32931;47.778;17.806;2023-04-03T15:46:48;19.30;45.70
47168;DHT22;32931;47.778;17.806;2023-04-03T15:49:18;19.40;45.20
47168;DHT22;32931;47.778;17.806;2023-04-03T15:51:45;19.40;45.00
47168;DHT22;32931;47.778;17.806;2023-04-03T15:54:11;19.80;45.20
47168;DHT22;32931;47.778;17.806;2023-04-03T15:56:37;20.10;44.90
47168;DHT22;32931;47.778;17.806;2023-04-03T15:59:03;20.20;44.90
47168;DHT22;32931;47.778;17.806;2023-04-03T16:01:30;19.80;44.20
47168;DHT22;32931;47.778;17.806;2023-04-03T16:03:57;19.50;43.30
47168;DHT22;32931;47.778;17.806;2023-04-03T16:06:24;19.40;44.90
47168;DHT22;32931;47.778;17.806;2023-04-03T16:08:51;19.40;44.10
47168;DHT22;32931;47.778;17.806;2023-04-03T16:11:17;19.00;43.60
47168;DHT22;32931;47.778;17.806;2023-04-03T16:13:43;19.10;44.30
47168;DHT22;32931;47.778;17.806;2023-04-03T16:16:10;18.60;43.90
47168;DHT22;32931;47.778;17.806;2023-04-03T16:18:36;18.30;44.20
47168;DHT22;32931;47.778;17.806;2023-04-03T16:21:02;18.20;44.50
47168;DHT22;32931;47.778;17.806;2023-04-03T16:23:29;17.80;44.50
47168;DHT22;32931;47.778;17.806;2023-04-03T16:25:55;17.30;44.40
47168;DHT22;32931;47.778;17.806;2023-04-03T16:28:21;16.70;44.80
47168;DHT22;32931;47.778;17.806;2023-04-03T16:30:47;16.60;45.60
47168;DHT22;32931;47.778;17.806;2023-04-03T16:33:15;16.40;45.30
47168;DHT22;32931;47.778;17.806;2023-04-03T16:35:41;16.00;45.10
47168;DHT22;32931;47.778;17.806;2023-04-03T16:38:07;15.50;45.30
47168;DHT22;32931;47.778;17.806;2023-04-03T16:40:34;14.90;45.80
47168;DHT22;32931;47.778;17.806;2023-04-03T16:43:01;14.50;47.50
47168;DHT22;32931;47.778;17.806;2023-04-03T16:45:28;14.10;46.60
47168;DHT22;32931;47.778;17.806;2023-04-03T16:47:54;13.70;46.60
47168;DHT22;32931;47.778;17.806;2023-04-03T16:50:20;13.20;46.80
47168;DHT22;32931;47.778;17.806;2023-04-03T16:52:46;13.00;47.20
47168;DHT22;32931;47.778;17.806;2023-04-03T16:55:13;12.80;47.30
47168;DHT22;32931;47.778;17.806;2023-04-03T16:57:39;12.50;47.70
47168;DHT22;32931;47.778;17.806;2023-04-03T17:00:06;12.30;47.70
47168;DHT22;32931;47.778;17.806;2023-04-03T17:02:33;12.10;48.20
47168;DHT22;32931;47.778;17.806;2023-04-03T17:04:59;11.80;48.40
47168;DHT22;32931;47.778;17.806;2023-04-03T17:07:25;11.70;48.50
47168;DHT22;32931;47.778;17.806;2023-04-03T17:09:52;11.50;49.20
47168;DHT22;32931;47.778;17.806;2023-04-03T17:12:20;11.50;49.70